Time;durP1;ratioP1;P1;durP2;ratioP2;P2;SDS_P1;SDS_P2;PMS_P1;PMS_P2;Temp;Humidity;BMP_temperature;BMP_pressure;BME280_temperature;BME280_humidity;BME280_pressure;Samples;Min_cycle;Max_cycle;Signal;HPM_P1;HPM_P2
2022/05/02 00:00:59;;;;;;;0.10;0.10;;;12.80;99.90;306.50;52929.00;;;;5075118;28;20193;-71
2022/05/02 00:03:27;;;;;;;0.05;0.05;;;12.80;99.90;306.60;52932.00;;;;5064618;28;20243;-71
2022/05/02 00:05:56;;;;;;;0.10;0.10;;;12.70;99.90;306.50;52933.00;;;;5082630;28;20221;-71
2022/05/02 00:08:24;;;;;;;0.10;0.10;;;12.70;99.90;306.50;52936.00;;;;5058675;28;20687;-72
2022/05/02 00:10:54;;;;;;;0.10;0.10;;;12.70;99.90;306.40;52934.00;;;;5061372;28;20210;-71
2022/05/02 00:13:22;;;;;;;0.10;0.10;;;12.70;99.90;306.40;52941.00;;;;5071711;28;20205;-71
2022/05/02 00:15:50;;;;;;;0.00;0.00;;;12.70;99.90;306.20;52957.00;;;;5066667;28;20265;-71
2022/05/02 00:18:18;;;;;;;0.10;0.10;;;12.60;99.90;306.10;52957.00;;;;5053713;28;20194;-71
2022/05/02 00:20:46;;;;;;;0.10;0.10;;;12.60;99.90;306.10;52956.00;;;;5080100;28;20212;-71
2022/05/02 00:23:14;;;;;;;0.10;0.10;;;12.60;99.90;306.10;52959.00;;;;5071040;28;20213;-71
2022/05/02 00:25:42;;;;;;;0.10;0.10;;;12.50;99.90;306.20;52950.00;;;;5064588;28;20222;-71
2022/05/02 00:28:15;;;;;;;0.00;0.00;;;12.60;99.90;306.10;52950.00;;;;5060539;28;20458;-71
2022/05/02 00:30:44;;;;;;;0.10;0.10;;;12.60;99.90;306.10;52961.00;;;;5072226;28;20205;-71
2022/05/02 00:33:13;;;;;;;0.00;0.00;;;12.50;99.90;306.10;52959.00;;;;5075949;28;20324;-71
2022/05/02 00:35:41;;;;;;;0.00;0.00;;;12.50;99.90;305.90;52972.00;;;;5071350;28;20220;-71
2022/05/02 00:38:09;;;;;;;0.00;0.00;;;12.50;99.90;305.70;52987.00;;;;5070765;28;20194;-71
2022/05/02 00:40:37;;;;;;;0.10;0.10;;;12.40;99.90;305.60;52997.00;;;;5072783;28;20193;-71
2022/05/02 00:43:05;;;;;;;0.08;0.08;;;12.30;99.90;305.30;53012.00;;;;5073214;28;20221;-71
2022/05/02 00:45:38;;;;;;;0.10;0.10;;;12.20;99.90;305.30;53023.00;;;;5090623;28;20566;-71
2022/05/02 00:48:09;;;;;;;0.10;0.10;;;12.10;99.90;305.40;53006.00;;;;5095424;28;20267;-71
2022/05/02 00:50:40;;;;;;;0.10;0.10;;;12.20;99.90;305.40;53007.00;;;;5094321;28;20254;-71
2022/05/02 00:53:12;;;;;;;0.10;0.10;;;12.20;99.90;305.40;53010.00;;;;5062102;28;20213;-71
2022/05/02 00:55:42;;;;;;;0.00;0.00;;;12.20;99.90;305.40;53005.00;;;;5071269;28;20222;-71
2022/05/02 00:58:10;;;;;;;0.10;0.10;;;12.10;99.90;305.30;53020.00;;;;5075047;28;20720;-70
2022/05/02 01:00:41;;;;;;;0.10;0.10;;;12.10;99.90;305.20;53025.00;;;;5072512;28;20206;-70
2022/05/02 01:03:11;;;;;;;0.05;0.05;;;12.10;99.90;305.30;53023.00;;;;5077657;28;20217;-71
2022/05/02 01:08:25;;;;;;;0.00;0.00;;;12.10;99.90;305.20;53018.00;;;;5073333;28;20217;-71
2022/05/02 01:10:56;;;;;;;0.10;0.10;;;12.10;99.90;305.10;53031.00;;;;5070511;28;20593;-71
2022/05/02 01:13:33;;;;;;;0.00;0.00;;;12.00;99.90;304.90;53046.00;;;;5074831;28;20733;-71
2022/05/02 01:16:12;;;;;;;0.10;0.10;;;11.90;99.90;304.70;53069.00;;;;5091251;28;20219;-72
2022/05/02 01:18:40;;;;;;;0.10;0.10;;;11.80;99.90;304.60;53077.00;;;;5065648;28;20277;-71
2022/05/02 01:21:12;;;;;;;0.10;0.10;;;11.80;99.90;304.70;53069.00;;;;5069765;28;20196;-72
2022/05/02 01:23:40;;;;;;;0.10;0.10;;;11.80;99.90;304.80;53061.00;;;;5067138;28;20279;-72
2022/05/02 01:26:08;;;;;;;0.10;0.10;;;11.80;99.90;304.80;53054.00;;;;5085840;28;20209;-72
2022/05/02 01:28:46;;;;;;;0.10;0.10;;;11.80;99.90;304.70;53060.00;;;;5075441;28;20197;-72
2022/05/02 01:31:16;;;;;;;0.00;0.00;;;11.80;99.90;304.40;53083.00;;;;5075057;28;20215;-72
2022/05/02 01:33:46;;;;;;;0.10;0.10;;;11.60;99.90;304.20;53098.00;;;;5068010;28;20236;-72
2022/05/02 01:36:17;;;;;;;0.00;0.00;;;11.60;99.90;304.10;53105.00;;;;5073273;28;20684;-71
2022/05/02 01:38:45;;;;;;;0.05;0.05;;;11.50;99.90;304.40;53089.00;;;;5079896;28;20204;-71
2022/05/02 01:41:13;;;;;;;0.10;0.10;;;11.60;99.90;304.10;53101.00;;;;5084874;28;20198;-71
2022/05/02 01:43:42;;;;;;;0.00;0.00;;;11.50;99.90;304.10;53105.00;;;;5066920;28;20217;-71
2022/05/02 01:46:13;;;;;;;0.10;0.10;;;11.50;99.90;304.00;53116.00;;;;5082017;28;20449;-71
2022/05/02 01:48:41;;;;;;;0.00;0.00;;;11.50;99.90;303.60;53150.00;;;;5080265;28;20671;-71
2022/05/02 01:51:09;;;;;;;0.10;0.10;;;11.30;99.90;303.40;53165.00;;;;5075523;28;20193;-72
2022/05/02 01:53:39;;;;;;;0.10;0.10;;;11.20;99.90;303.50;53152.00;;;;5063163;28;20617;-71
2022/05/02 01:56:07;;;;;;;0.10;0.10;;;11.30;99.90;303.70;53144.00;;;;5058030;28;20706;-71
2022/05/02 01:58:35;;;;;;;0.10;0.10;;;11.40;99.90;303.80;53130.00;;;;5065491;28;20695;-71
2022/05/02 02:01:03;;;;;;;0.10;0.10;;;11.40;99.90;303.80;53128.00;;;;5069829;28;20201;-72
2022/05/02 02:03:31;;;;;;;0.00;0.00;;;11.40;99.90;304.00;53106.00;;;;5068989;28;20232;-72
2022/05/02 02:06:00;;;;;;;0.10;0.10;;;11.40;99.90;304.00;53108.00;;;;5072912;28;20723;-72
2022/05/02 02:08:30;;;;;;;0.10;0.10;;;11.40;99.90;304.10;53103.00;;;;5080109;28;20189;-73
2022/05/02 02:11:02;;;;;;;0.10;0.10;;;11.50;99.90;304.00;53106.00;;;;5088012;28;20198;-73
2022/05/02 02:13:31;;;;;;;0.10;0.10;;;11.50;99.90;304.00;53115.00;;;;5084899;28;20198;-72
2022/05/02 02:15:59;;;;;;;0.10;0.10;;;11.40;99.90;303.90;53115.00;;;;5089046;28;20217;-72
2022/05/02 02:18:28;;;;;;;0.00;0.00;;;11.40;99.90;303.90;53121.00;;;;5064466;28;20193;-71
2022/05/02 02:20:57;;;;;;;0.10;0.10;;;11.40;99.90;303.90;53125.00;;;;5075465;28;20194;-71
2022/05/02 02:23:25;;;;;;;0.10;0.10;;;11.40;99.90;303.90;53114.00;;;;5080704;28;20229;-72
2022/05/02 02:25:53;;;;;;;0.10;0.10;;;11.40;99.90;304.00;53114.00;;;;5081874;28;20221;-71
2022/05/02 02:28:23;;;;;;;0.10;0.10;;;11.50;99.90;304.00;53111.00;;;;5080355;28;20197;-71
2022/05/02 02:30:51;;;;;;;0.10;0.10;;;11.40;99.90;304.10;53101.00;;;;5090682;28;20201;-71
2022/05/02 02:33:20;;;;;;;0.10;0.10;;;11.50;99.90;304.10;53095.00;;;;5073867;28;20201;-71
2022/05/02 02:35:49;;;;;;;0.10;0.10;;;11.50;99.90;303.90;53105.00;;;;5085951;28;20233;-71
2022/05/02 02:38:17;;;;;;;0.10;0.10;;;11.40;99.90;303.90;53112.00;;;;5079085;28;20206;-72
2022/05/02 02:40:45;;;;;;;0.10;0.10;;;11.40;99.90;303.60;53130.00;;;;5083535;28;20607;-72
2022/05/02 02:43:13;;;;;;;0.10;0.10;;;11.30;99.90;303.30;53163.00;;;;5073171;28;20261;-72
2022/05/02 02:45:42;;;;;;;0.03;0.03;;;11.10;99.90;303.30;53155.00;;;;5096581;28;20763;-72
2022/05/02 02:48:10;;;;;;;0.10;0.10;;;11.10;99.90;303.30;53159.00;;;;5102982;28;20192;-72
2022/05/02 02:50:38;;;;;;;0.10;0.10;;;11.10;99.90;303.30;53158.00;;;;5098938;28;20203;-72
2022/05/02 02:53:06;;;;;;;0.10;0.10;;;11.10;99.90;303.30;53154.00;;;;5075098;28;20205;-72
2022/05/02 02:55:37;;;;;;;0.10;0.10;;;11.10;99.90;303.20;53156.00;;;;5089263;28;20266;-71
2022/05/02 02:58:05;;;;;;;0.10;0.10;;;11.10;99.90;303.20;53159.00;;;;5078603;28;20571;-71
2022/05/02 03:00:33;;;;;;;0.10;0.10;;;11.00;99.90;303.10;53169.00;;;;5078823;28;20229;-72
2022/05/02 03:03:04;;;;;;;0.10;0.10;;;11.00;99.90;303.10;53165.00;;;;5063844;28;20189;-72
2022/05/02 03:08:20;;;;;;;0.05;0.05;;;10.90;99.90;302.90;53176.00;;;;5071881;28;20202;-72
2022/05/02 03:10:48;;;;;;;0.10;0.10;;;10.90;99.90;303.20;53154.00;;;;5063227;28;20670;-72
2022/05/02 03:13:16;;;;;;;0.10;0.10;;;11.00;99.90;303.10;53168.00;;;;5074045;28;20200;-72
2022/05/02 03:15:44;;;;;;;0.10;0.10;;;10.90;99.90;302.90;53176.00;;;;5089645;28;20263;-72
2022/05/02 03:18:14;;;;;;;0.10;0.10;;;10.90;99.90;303.10;53165.00;;;;5094651;28;20188;-72
2022/05/02 03:20:41;;;;;;;0.10;0.10;;;10.90;99.90;303.20;53156.00;;;;5075715;28;20198;-72
2022/05/02 03:23:09;;;;;;;0.10;0.10;;;11.00;99.90;303.00;53163.00;;;;5073277;28;20201;-72
2022/05/02 03:25:37;;;;;;;0.10;0.10;;;10.90;99.90;303.10;53159.00;;;;5086127;28;20227;-73
2022/05/02 03:28:06;;;;;;;0.10;0.10;;;11.00;99.90;303.10;53154.00;;;;5090799;28;20186;-73
2022/05/02 03:30:34;;;;;;;0.00;0.00;;;11.00;99.90;302.90;53173.00;;;;5079438;28;20607;-72
2022/05/02 03:33:02;;;;;;;0.10;0.10;;;10.90;99.90;302.80;53177.00;;;;5072119;28;20189;-71
2022/05/02 03:35:32;;;;;;;0.10;0.10;;;10.80;99.90;302.60;53198.00;;;;5080753;28;20213;-72
2022/05/02 03:38:00;;;;;;;0.10;0.10;;;10.70;99.90;302.60;53195.00;;;;5093492;28;20193;-72
2022/05/02 03:40:28;;;;;;;0.10;0.10;;;10.70;99.90;302.40;53206.00;;;;5081020;28;20201;-72
2022/05/02 03:42:56;;;;;;;0.10;0.10;;;10.70;99.90;302.30;53219.00;;;;5073925;28;20644;-71
2022/05/02 03:45:24;;;;;;;0.10;0.10;;;10.60;99.90;302.10;53239.00;;;;5069976;28;20475;-71
2022/05/02 03:47:52;;;;;;;0.10;0.10;;;10.50;99.90;302.20;53233.00;;;;5062888;28;20205;-71
2022/05/02 03:50:20;;;;;;;0.00;0.00;;;10.50;99.90;302.30;53224.00;;;;5066259;28;20204;-71
2022/05/02 03:52:55;;;;;;;0.10;0.10;;;10.50;99.90;302.20;53222.00;;;;5072853;28;20665;-71
2022/05/02 03:55:24;;;;;;;0.10;0.10;;;10.60;99.90;302.20;53229.00;;;;5081054;28;20222;-71
2022/05/02 03:57:53;;;;;;;0.10;0.10;;;10.50;99.90;302.10;53234.00;;;;5060743;28;20194;-71
2022/05/02 04:00:21;;;;;;;0.10;0.10;;;10.50;99.90;302.20;53229.00;;;;5078562;28;20204;-72
2022/05/02 04:02:53;;;;;;;0.05;0.05;;;10.50;99.90;302.20;53238.00;;;;5054752;28;20557;-72
2022/05/02 04:05:21;;;;;;;0.10;0.10;;;10.50;99.90;302.10;53240.00;;;;5081447;28;20228;-72
2022/05/02 04:07:49;;;;;;;0.10;0.10;;;10.50;99.90;301.80;53268.00;;;;5092718;28;20243;-72
2022/05/02 04:10:19;;;;;;;0.10;0.10;;;10.30;99.90;301.70;53275.00;;;;5064991;28;20190;-72
2022/05/02 04:12:47;;;;;;;0.10;0.10;;;10.30;99.90;301.70;53276.00;;;;5063368;28;20194;-72
2022/05/02 04:15:17;;;;;;;0.10;0.10;;;10.30;99.90;301.70;53277.00;;;;5081112;28;20213;-71
2022/05/02 04:17:45;;;;;;;0.10;0.10;;;10.30;99.90;301.70;53281.00;;;;5082286;28;20254;-73
2022/05/02 04:20:13;;;;;;;0.10;0.10;;;10.20;99.90;301.70;53273.00;;;;5074664;28;20182;-73
2022/05/02 04:22:42;;;;;;;0.10;0.10;;;10.30;99.90;301.80;53277.00;;;;5079218;28;20200;-73
2022/05/02 04:25:10;;;;;;;0.10;0.10;;;10.30;99.90;301.80;53270.00;;;;5091156;28;20677;-73
2022/05/02 04:27:39;;;;;;;0.10;0.10;;;10.30;99.90;301.90;53265.00;;;;5099430;28;20215;-73
2022/05/02 04:30:09;;;;;;;0.10;0.10;;;10.30;99.90;301.90;53257.00;;;;5098645;28;20254;-73
2022/05/02 04:32:38;;;;;;;0.10;0.10;;;10.30;99.90;302.10;53239.00;;;;5102393;28;20189;-72
2022/05/02 04:35:07;;;;;;;0.00;0.00;;;10.40;99.90;302.20;53236.00;;;;5086162;28;20240;-73
2022/05/02 04:37:35;;;;;;;0.10;0.10;;;10.40;99.90;302.10;53244.00;;;;5060499;28;20190;-73
2022/05/02 04:40:04;;;;;;;0.10;0.10;;;10.40;99.90;302.00;53244.00;;;;5073292;28;20296;-73
2022/05/02 04:42:33;;;;;;;0.00;0.00;;;10.40;99.90;301.80;53270.00;;;;5076796;28;20201;-72
2022/05/02 04:45:02;;;;;;;0.10;0.10;;;10.30;99.90;301.70;53272.00;;;;5078832;28;20217;-73
2022/05/02 04:47:30;;;;;;;0.10;0.10;;;10.20;99.90;301.80;53270.00;;;;5059497;28;20202;-72
2022/05/02 04:50:04;;;;;;;0.10;0.10;;;10.20;99.90;302.00;53255.00;;;;5062633;28;20191;-73
2022/05/02 04:52:32;;;;;;;0.10;0.10;;;10.30;99.90;302.00;53251.00;;;;5071338;28;20672;-73
2022/05/02 04:55:00;;;;;;;0.00;0.00;;;10.30;99.90;302.00;53253.00;;;;5081699;28;20226;-72
2022/05/02 04:57:29;;;;;;;0.10;0.10;;;10.30;99.90;302.10;53246.00;;;;5072455;28;20194;-73
2022/05/02 04:59:57;;;;;;;0.10;0.10;;;10.40;99.90;302.20;53239.00;;;;5066655;28;20189;-72
2022/05/02 05:02:27;;;;;;;0.00;0.00;;;10.40;99.90;302.00;53256.00;;;;5068639;28;20332;-73
2022/05/02 05:04:55;;;;;;;0.10;0.10;;;10.40;99.90;302.10;53251.00;;;;5065580;28;20224;-72
2022/05/02 05:07:23;;;;;;;0.10;0.10;;;10.40;99.90;301.80;53275.00;;;;5083417;28;20186;-73
2022/05/02 05:09:51;;;;;;;0.10;0.10;;;10.20;99.90;301.30;53316.00;;;;5080704;28;20562;-73
2022/05/02 05:12:36;;;;;;;0.10;0.10;;;9.90;99.90;300.70;53359.00;;;;5064024;28;20229;-72
2022/05/02 05:18:22;;;;;;;0.10;0.10;;;9.60;99.90;300.30;53398.00;;;;5060411;28;20194;-73
2022/05/02 05:21:03;;;;;;;0.10;0.10;;;9.50;99.90;300.40;53387.00;;;;5058039;28;20553;-71
2022/05/02 05:24:21;;;;;;;0.10;0.10;;;9.60;99.90;300.60;53373.00;;;;5058747;28;20745;-71
2022/05/02 05:26:59;;;;;;;0.10;0.10;;;9.70;99.90;300.70;53364.00;;;;5075355;28;20667;-71
2022/05/02 05:29:42;;;;;;;0.10;0.10;;;9.70;99.90;300.80;53355.00;;;;5067606;28;20663;-70
2022/05/02 05:32:27;;;;;;;0.10;0.10;;;9.70;99.90;301.00;53331.00;;;;5058032;28;20606;-73
2022/05/02 05:35:05;;;;;;;0.10;0.10;;;9.90;99.90;301.40;53306.00;;;;5055791;28;20233;-70
2022/05/02 05:38:10;;;;;;;0.00;0.00;;;10.00;99.90;301.80;53266.00;;;;5068645;28;20687;-71
2022/05/02 05:40:42;;;;;;;0.10;0.10;;;10.20;99.90;302.40;53224.00;;;;5071376;28;20227;-71
2022/05/02 05:43:42;;;;;;;0.00;0.00;;;10.40;99.90;302.60;53192.00;;;;5078461;28;20194;-71
2022/05/02 05:46:53;;;;;;;0.10;0.10;;;10.60;99.90;303.00;53169.00;;;;5076772;28;20232;-71
2022/05/02 05:49:39;;;;;;;0.10;0.10;;;10.70;99.90;303.10;53156.00;;;;5076540;28;20201;-71
2022/05/02 05:52:16;;;;;;;0.10;0.10;;;10.80;99.90;303.30;53138.00;;;;5075457;28;20655;-72
2022/05/02 05:55:06;;;;;;;0.10;0.10;;;10.90;99.90;303.30;53139.00;;;;5075008;28;20721;-72
2022/05/02 05:57:46;;;;;;;0.08;0.08;;;11.00;99.90;303.50;53118.00;;;;5075207;28;20186;-72
2022/05/02 06:00:16;;;;;;;0.10;0.10;;;11.10;99.90;303.70;53108.00;;;;5074996;28;20690;-73
2022/05/02 06:03:11;;;;;;;0.10;0.10;;;11.10;99.90;303.80;53094.00;;;;5075224;28;20186;-72
2022/05/02 06:05:41;;;;;;;0.10;0.10;;;11.20;99.90;304.00;53084.00;;;;5074524;28;20232;-72
2022/05/02 06:08:15;;;;;;;0.10;0.10;;;11.30;99.90;304.20;53059.00;;;;5074810;28;20198;-72
2022/05/02 06:10:44;;;;;;;0.10;0.10;;;11.40;99.90;304.60;53033.00;;;;5074639;28;20193;-72
2022/05/02 06:13:17;;;;;;;0.10;0.10;;;11.60;99.90;304.20;53060.00;;;;5074298;28;20224;-72
2022/05/02 06:18:58;;;;;;;0.10;0.10;;;11.60;99.90;304.60;53028.00;;;;5074639;28;20564;-72
2022/05/02 06:21:26;;;;;;;0.10;0.10;;;11.70;99.90;304.90;53007.00;;;;5073950;28;20201;-72
2022/05/02 06:24:00;;;;;;;0.10;0.10;;;11.80;99.90;305.10;52988.00;;;;5073745;28;20214;-72
2022/05/02 06:26:28;;;;;;;0.10;0.10;;;11.90;99.90;305.40;52968.00;;;;5073443;28;20301;-72
2022/05/02 06:28:56;;;;;;;0.10;0.10;;;12.00;99.90;305.60;52950.00;;;;5073565;28;20239;-72
2022/05/02 06:31:27;;;;;;;0.10;0.10;;;12.20;99.90;305.80;52935.00;;;;5073316;28;20194;-72
2022/05/02 06:33:58;;;;;;;0.10;0.10;;;12.20;99.90;305.90;52920.00;;;;5073173;28;20272;-72
2022/05/02 06:36:52;;;;;;;0.10;0.10;;;12.30;99.90;306.10;52905.00;;;;5072904;28;20201;-72
2022/05/02 06:39:37;;;;;;;0.10;0.10;;;12.40;99.90;306.30;52893.00;;;;5072946;28;20190;-72
2022/05/02 06:42:31;;;;;;;0.10;0.10;;;12.50;99.90;306.30;52891.00;;;;5071927;28;20194;-72
2022/05/02 06:45:29;;;;;;;0.00;0.00;;;12.60;99.90;306.30;52894.00;;;;5072916;28;20209;-71
2022/05/02 06:48:29;;;;;;;0.00;0.00;;;12.60;99.90;306.50;52875.00;;;;5072793;28;20272;-72
2022/05/02 06:51:06;;;;;;;0.10;0.10;;;12.60;99.90;306.60;52867.00;;;;5072863;28;20248;-72
2022/05/02 06:54:12;;;;;;;0.10;0.10;;;12.70;99.90;306.40;52882.00;;;;5073095;28;20538;-72
2022/05/02 06:56:46;;;;;;;0.10;0.10;;;12.60;99.90;306.60;52865.00;;;;5072667;28;20201;-71
2022/05/02 06:59:40;;;;;;;0.10;0.10;;;12.80;99.90;307.00;52837.00;;;;5072739;28;20182;-72
2022/05/02 07:02:49;;;;;;;0.10;0.10;;;12.90;99.90;307.10;52826.00;;;;5072666;28;20243;-72
2022/05/02 07:05:27;;;;;;;0.10;0.10;;;13.00;99.90;307.30;52808.00;;;;5072530;28;20627;-72
2022/05/02 07:08:02;;;;;;;0.10;0.10;;;13.10;99.90;307.20;52811.00;;;;5072138;28;20663;-72
2022/05/02 07:10:33;;;;;;;0.10;0.10;;;13.10;99.90;307.60;52787.00;;;;5072609;28;20193;-72
2022/05/02 07:13:29;;;;;;;0.10;0.10;;;13.20;99.90;307.90;52757.00;;;;5072561;28;20198;-72
2022/05/02 07:16:05;;;;;;;0.10;0.10;;;13.30;99.90;308.30;52730.00;;;;5072149;28;20263;-72
2022/05/02 07:18:53;;;;;;;0.10;0.10;;;13.50;99.90;308.50;52707.00;;;;5072397;28;20190;-72
2022/05/02 07:21:38;;;;;;;0.10;0.10;;;13.60;99.90;308.70;52695.00;;;;5072277;28;20197;-72
2022/05/02 07:24:35;;;;;;;0.00;0.00;;;13.80;99.90;309.00;52677.00;;;;5071723;28;20245;-71
2022/05/02 07:27:17;;;;;;;0.03;0.03;;;13.90;99.90;309.00;52671.00;;;;5070426;28;20699;-72
2022/05/02 07:29:57;;;;;;;0.10;0.10;;;13.90;99.90;309.20;52657.00;;;;5072314;28;20201;-72
2022/05/02 07:32:27;;;;;;;0.03;0.03;;;14.00;99.90;309.20;52651.00;;;;5065264;28;20197;-72
2022/05/02 07:34:57;;;;;;;0.10;0.10;;;14.10;99.90;309.50;52630.00;;;;5058513;28;20268;-71
2022/05/02 07:37:25;;;;;;;0.10;0.10;;;14.20;99.90;310.00;52596.00;;;;5051867;28;20209;-72
2022/05/02 07:39:53;;;;;;;0.10;0.10;;;14.40;99.90;310.30;52574.00;;;;5054458;28;20225;-72
2022/05/02 07:42:24;;;;;;;0.10;0.10;;;14.50;99.90;310.40;52567.00;;;;5072733;28;20225;-72
2022/05/02 07:45:00;;;;;;;0.10;0.10;;;14.60;99.90;310.30;52568.00;;;;5072109;28;20210;-71
2022/05/02 07:47:33;;;;;;;0.10;0.10;;;14.60;99.90;310.40;52556.00;;;;5071787;28;20229;-71
2022/05/02 07:50:04;;;;;;;0.10;0.10;;;14.70;99.90;310.70;52541.00;;;;5072184;28;20675;-72
2022/05/02 07:52:39;;;;;;;0.10;0.10;;;14.80;99.90;311.20;52506.00;;;;5071398;28;20208;-71
2022/05/02 07:55:10;;;;;;;0.10;0.10;;;15.00;99.90;311.60;52470.00;;;;5071573;28;20221;-71
2022/05/02 07:57:41;;;;;;;0.10;0.10;;;15.20;99.90;312.00;52436.00;;;;5072991;28;20192;-71
2022/05/02 08:00:13;;;;;;;0.00;0.00;;;15.40;99.90;312.10;52436.00;;;;5073609;28;20201;-71
2022/05/02 08:02:41;;;;;;;0.00;0.00;;;15.50;99.90;312.40;52411.00;;;;5072251;28;20198;-71
2022/05/02 08:05:11;;;;;;;0.10;0.10;;;15.60;99.90;312.30;52412.00;;;;5071716;28;20213;-71
2022/05/02 08:07:43;;;;;;;0.00;0.00;;;15.70;99.90;312.30;52413.00;;;;5071795;28;20220;-71
2022/05/02 08:10:45;;;;;;;0.10;0.10;;;15.70;99.90;312.00;52432.00;;;;5071891;28;20193;-69
2022/05/02 08:13:38;;;;;;;0.10;0.10;;;15.60;99.90;312.50;52389.00;;;;5071737;28;20197;-69
2022/05/02 08:16:20;;;;;;;0.00;0.00;;;15.70;99.90;312.80;52369.00;;;;5070991;28;20215;-70
2022/05/02 08:19:20;;;;;;;0.10;0.10;;;15.90;99.90;313.00;52351.00;;;;5071963;28;20193;-70
2022/05/02 08:27:15;;;;;;;0.00;0.00;;;16.00;99.90;313.30;52338.00;;;;5075277;28;20193;-70
2022/05/02 08:28:03;;;;;;;0.00;0.00;;;16.10;99.90;313.30;52336.00;;;;5077032;28;20576;-70
2022/05/02 08:30:39;;;;;;;0.08;0.08;;;16.20;99.90;313.30;52338.00;;;;5076738;28;20190;-70
2022/05/02 08:33:11;;;;;;;0.00;0.00;;;16.30;99.90;313.50;52318.00;;;;5074811;28;20224;-70
2022/05/02 08:35:58;;;;;;;0.10;0.10;;;16.30;99.90;313.90;52288.00;;;;5071462;28;20275;-70
2022/05/02 08:38:55;;;;;;;0.00;0.00;;;16.40;99.90;314.10;52268.00;;;;5071482;28;20212;-71
2022/05/02 08:42:41;;;;;;;0.10;0.10;;;16.50;99.90;314.60;52233.00;;;;5064677;28;20198;-70
2022/05/02 08:45:40;;;;;;;0.08;0.08;;;16.70;99.90;315.00;52000.00;;;;5057397;28;20275;-71
2022/05/02 08:52:47;;;;;;;0.00;0.00;;;17.00;99.90;314.80;52016.00;;;;5051814;28;20209;-71
2022/05/02 08:55:40;;;;;;;0.00;0.00;;;17.00;99.90;314.80;52013.00;;;;5040056;28;20234;-71
2022/05/02 08:59:01;;;;;;;0.03;0.03;;;17.00;99.90;315.20;51986.00;;;;5051630;28;20195;-70
2022/05/02 09:02:20;;;;;;;0.00;0.00;;;17.10;99.90;315.80;51947.00;;;;5051822;28;20194;-70
2022/05/02 09:05:29;;;;;;;0.00;0.00;;;17.30;99.90;315.90;51930.00;;;;5056123;28;20268;-71
2022/05/02 09:08:46;;;;;;;0.00;0.00;;;17.40;99.90;316.20;51902.00;;;;5065617;28;20472;-71
2022/05/02 09:11:32;;;;;;;0.00;0.00;;;17.60;99.90;316.80;51867.00;;;;5054731;28;20202;-71
2022/05/02 09:14:47;;;;;;;0.00;0.00;;;17.90;99.90;316.80;51864.00;;;;5054464;28;20197;-71
2022/05/02 09:18:17;;;;;;;0.00;0.00;;;18.00;99.90;317.20;51834.00;;;;5074352;28;20213;-71
2022/05/02 09:21:01;;;;;;;0.00;0.00;;;18.20;99.90;317.50;51792.00;;;;5074663;28;20196;-71
2022/05/02 09:24:30;;;;;;;0.05;0.05;;;18.40;99.90;318.10;51766.00;;;;5074668;28;20201;-71
2022/05/02 09:27:15;;;;;;;0.00;0.00;;;18.60;99.90;318.20;51757.00;;;;5074679;28;20217;-71
2022/05/02 09:30:29;;;;;;;0.00;0.00;;;18.60;99.90;318.40;51745.00;;;;5074496;28;20198;-71
2022/05/02 09:33:30;;;;;;;0.00;0.00;;;18.80;99.90;318.70;51755.00;;;;5074329;28;20200;-71
2022/05/02 09:36:14;;;;;;;0.00;0.00;;;18.80;99.90;318.90;51737.00;;;;5074277;28;20241;-71
2022/05/02 09:38:51;;;;;;;0.00;0.00;;;18.90;99.90;319.20;51720.00;;;;5074139;28;20550;-71
2022/05/02 09:41:52;;;;;;;0.00;0.00;;;19.00;99.90;318.60;51753.00;;;;5074267;28;20203;-71
2022/05/02 09:51:31;;;;;;;0.00;0.00;;;19.10;99.90;319.50;51686.00;;;;5074162;28;20259;-71
2022/05/02 09:54:05;;;;;;;0.00;0.00;;;19.30;99.90;319.80;51659.00;;;;5079629;28;20194;-71
2022/05/02 09:56:44;;;;;;;0.00;0.00;;;19.30;99.90;319.80;51663.00;;;;5075525;28;20200;-70
2022/05/02 09:59:26;;;;;;;0.00;0.00;;;19.40;99.90;320.10;51635.00;;;;5079727;28;20250;-70
2022/05/02 10:02:05;;;;;;;0.00;0.00;;;19.50;99.90;320.40;51614.00;;;;5076304;28;20194;-70
2022/05/02 10:04:49;;;;;;;0.00;0.00;;;19.60;99.90;320.50;51603.00;;;;5075505;28;20252;-71
2022/05/02 10:07:25;;;;;;;0.00;0.00;;;19.70;99.90;320.50;51604.00;;;;5076040;28;20243;-71
2022/05/02 10:10:05;;;;;;;0.00;0.00;;;19.70;99.90;320.80;51579.00;;;;5076718;28;20189;-71
2022/05/02 10:12:49;;;;;;;0.00;0.00;;;19.80;99.90;320.50;51603.00;;;;5074187;28;20197;-71
2022/05/02 10:15:54;;;;;;;0.00;0.00;;;19.80;99.90;320.70;51582.00;;;;5073293;28;20209;-71
2022/05/02 10:19:01;;;;;;;0.00;0.00;;;19.90;99.90;321.10;51560.00;;;;5073510;28;20279;-71
2022/05/02 10:21:54;;;;;;;0.00;0.00;;;20.00;99.90;321.10;51520.00;;;;5073882;28;20566;-71
2022/05/02 10:24:54;;;;;;;0.00;0.00;;;20.10;99.90;321.70;51478.00;;;;5073240;28;20283;-71
2022/05/02 10:27:38;;;;;;;0.00;0.00;;;20.30;99.60;321.50;51495.00;;;;5072957;28;20304;-70
2022/05/02 10:30:12;;;;;;;0.00;0.00;;;20.30;99.50;321.70;51478.00;;;;5073315;28;20190;-71
2022/05/02 10:32:56;;;;;;;0.00;0.00;;;20.30;99.80;321.80;51467.00;;;;5073454;28;20190;-71
2022/05/02 10:35:27;;;;;;;0.00;0.00;;;20.40;99.90;321.60;51480.00;;;;5072834;28;20213;-71
2022/05/02 10:37:58;;;;;;;0.00;0.00;;;20.40;99.50;322.00;51452.00;;;;5072941;28;20190;-70
2022/05/02 10:40:40;;;;;;;0.00;0.00;;;20.50;99.00;322.00;51453.00;;;;5073236;28;20225;-70
2022/05/02 10:43:10;;;;;;;0.00;0.00;;;20.60;99.30;322.30;51430.00;;;;5072979;28;20464;-71
2022/05/02 10:45:40;;;;;;;0.00;0.00;;;20.60;99.50;322.50;51417.00;;;;5072682;28;20218;-71
2022/05/02 10:48:19;;;;;;;0.00;0.00;;;20.70;99.30;323.20;51360.00;;;;5072772;28;20213;-71
2022/05/02 10:50:58;;;;;;;0.00;0.00;;;20.90;99.10;323.60;51332.00;;;;5073037;28;20197;-71
2022/05/02 10:53:59;;;;;;;0.00;0.00;;;21.10;99.10;323.60;51333.00;;;;5072773;28;20215;-71
2022/05/02 10:56:41;;;;;;;0.00;0.00;;;21.20;98.90;324.00;51296.00;;;;5072379;28;20197;-72
2022/05/02 10:59:13;;;;;;;0.00;0.00;;;21.30;98.50;324.20;51280.00;;;;5072667;28;20580;-72
2022/05/02 11:02:27;;;;;;;0.00;0.00;;;21.50;97.80;324.20;51286.00;;;;5070595;28;20202;-71
2022/05/02 11:05:11;;;;;;;0.00;0.00;;;21.50;98.10;324.40;51269.00;;;;5027105;28;20230;-72
2022/05/02 11:08:02;;;;;;;0.00;0.00;;;21.60;97.40;323.90;51301.00;;;;5052448;28;20730;-72
2022/05/02 11:10:39;;;;;;;0.00;0.00;;;21.50;97.60;323.50;51334.00;;;;5052813;28;20198;-72
2022/05/02 11:13:20;;;;;;;0.00;0.00;;;21.30;97.60;323.00;51367.00;;;;5052626;28;20195;-71
2022/05/02 11:16:16;;;;;;;0.00;0.00;;;21.20;97.60;323.40;51335.00;;;;5052957;28;20247;-71
2022/05/02 11:22:03;;;;;;;0.00;0.00;;;21.20;98.10;323.60;51323.00;;;;5053452;28;20651;-72
2022/05/02 11:24:43;;;;;;;0.00;0.00;;;21.20;97.50;323.50;51328.00;;;;5052083;28;20269;-72
2022/05/02 11:27:37;;;;;;;0.00;0.00;;;21.20;96.80;323.10;51358.00;;;;5051629;28;20247;-71
2022/05/02 11:30:09;;;;;;;0.00;0.00;;;21.10;96.80;323.20;51351.00;;;;5051965;28;20554;-71
2022/05/02 11:32:47;;;;;;;0.00;0.00;;;21.10;97.20;322.40;51402.00;;;;5058447;28;20684;-71
2022/05/02 11:35:28;;;;;;;0.00;0.00;;;20.90;96.90;321.90;51439.00;;;;5055374;28;20276;-71
2022/05/02 11:38:03;;;;;;;0.00;0.00;;;20.70;96.80;322.30;51413.00;;;;5052099;28;20198;-71
2022/05/02 11:40:33;;;;;;;0.00;0.00;;;20.70;97.10;322.70;51379.00;;;;5053968;28;20206;-71
2022/05/02 11:43:04;;;;;;;0.00;0.00;;;20.80;97.10;322.90;51361.00;;;;5055301;28;20194;-71
2022/05/02 11:45:43;;;;;;;0.00;0.00;;;20.90;97.30;323.20;51341.00;;;;5053384;28;20234;-72
2022/05/02 11:48:49;;;;;;;0.00;0.00;;;21.00;96.80;323.60;51312.00;;;;5051873;28;20214;-71
2022/05/02 11:51:33;;;;;;;0.00;0.00;;;21.10;96.30;322.90;51358.00;;;;5051541;28;20221;-71
2022/05/02 11:54:08;;;;;;;0.00;0.00;;;21.10;96.10;322.80;51365.00;;;;5051626;28;20202;-71
2022/05/02 11:56:49;;;;;;;0.00;0.00;;;21.00;96.50;322.90;51357.00;;;;5051591;28;20198;-71
2022/05/02 11:59:23;;;;;;;0.00;0.00;;;21.00;96.30;322.60;51376.00;;;;5051499;28;20205;-71
2022/05/02 12:02:04;;;;;;;0.00;0.00;;;20.90;96.00;322.50;51382.00;;;;5051686;28;20201;-71